sensor_id;sensor_type;location;lat;lon;timestamp;P1;durP1;ratioP1;P2;durP2;ratioP2
79145;SDS011;68792;53.338;-1.502;2023-04-03T00:00:18;2.15;;;0.90;;
79145;SDS011;68792;53.338;-1.502;2023-04-03T00:02:44;3.05;;;1.30;;
79145;SDS011;68792;53.338;-1.502;2023-04-03T00:05:09;3.90;;;1.20;;
79145;SDS011;68792;53.338;-1.502;2023-04-03T00:07:35;2.33;;;1.00;;
79145;SDS011;68792;53.338;-1.502;2023-04-03T00:10:00;2.65;;;1.23;;
79145;SDS011;68792;53.338;-1.502;2023-04-03T00:12:25;3.25;;;1.13;;
79145;SDS011;68792;53.338;-1.502;2023-04-03T00:14:51;3.17;;;1.10;;
79145;SDS011;68792;53.338;-1.502;2023-04-03T00:17:16;2.13;;;0.98;;
79145;SDS011;68792;53.338;-1.502;2023-04-03T00:19:42;3.17;;;1.15;;
79145;SDS011;68792;53.338;-1.502;2023-04-03T00:22:07;2.55;;;1.20;;
79145;SDS011;68792;53.338;-1.502;2023-04-03T00:24:32;2.58;;;1.10;;
79145;SDS011;68792;53.338;-1.502;2023-04-03T00:26:58;1.95;;;0.90;;
79145;SDS011;68792;53.338;-1.502;2023-04-03T00:29:23;2.63;;;1.10;;
79145;SDS011;68792;53.338;-1.502;2023-04-03T00:31:49;2.38;;;0.85;;
79145;SDS011;68792;53.338;-1.502;2023-04-03T00:34:14;2.17;;;1.02;;
79145;SDS011;68792;53.338;-1.502;2023-04-03T00:36:40;1.75;;;0.90;;
79145;SDS011;68792;53.338;-1.502;2023-04-03T00:39:05;2.45;;;0.90;;
79145;SDS011;68792;53.338;-1.502;2023-04-03T00:41:30;1.90;;;0.90;;
79145;SDS011;68792;53.338;-1.502;2023-04-03T00:43:57;2.83;;;1.30;;
79145;SDS011;68792;53.338;-1.502;2023-04-03T00:46:22;2.45;;;0.82;;
79145;SDS011;68792;53.338;-1.502;2023-04-03T00:48:48;2.00;;;0.95;;
79145;SDS011;68792;53.338;-1.502;2023-04-03T00:53:43;1.60;;;0.75;;
79145;SDS011;68792;53.338;-1.502;2023-04-03T00:56:12;2.67;;;1.00;;
79145;SDS011;68792;53.338;-1.502;2023-04-03T00:58:40;2.67;;;1.40;;
79145;SDS011;68792;53.338;-1.502;2023-04-03T01:01:08;1.92;;;0.93;;
79145;SDS011;68792;53.338;-1.502;2023-04-03T01:03:36;1.88;;;1.08;;
79145;SDS011;68792;53.338;-1.502;2023-04-03T01:06:01;2.78;;;1.67;;
79145;SDS011;68792;53.338;-1.502;2023-04-03T01:08:27;1.77;;;0.85;;
79145;SDS011;68792;53.338;-1.502;2023-04-03T01:10:52;1.95;;;0.93;;
79145;SDS011;68792;53.338;-1.502;2023-04-03T01:13:19;2.08;;;1.00;;
79145;SDS011;68792;53.338;-1.502;2023-04-03T01:15:47;2.08;;;1.15;;
79145;SDS011;68792;53.338;-1.502;2023-04-03T01:18:12;1.90;;;1.35;;
79145;SDS011;68792;53.338;-1.502;2023-04-03T01:26:13;1.63;;;0.73;;
79145;SDS011;68792;53.338;-1.502;2023-04-03T01:28:39;1.90;;;0.77;;
79145;SDS011;68792;53.338;-1.502;2023-04-03T01:33:37;1.83;;;0.80;;
79145;SDS011;68792;53.338;-1.502;2023-04-03T01:36:02;3.30;;;1.15;;
79145;SDS011;68792;53.338;-1.502;2023-04-03T01:38:28;1.33;;;0.60;;
79145;SDS011;68792;53.338;-1.502;2023-04-03T01:40:54;1.75;;;0.82;;
79145;SDS011;68792;53.338;-1.502;2023-04-03T01:43:19;2.55;;;0.80;;
79145;SDS011;68792;53.338;-1.502;2023-04-03T01:45:45;3.45;;;0.77;;
79145;SDS011;68792;53.338;-1.502;2023-04-03T01:48:11;0.82;;;0.60;;
79145;SDS011;68792;53.338;-1.502;2023-04-03T01:50:37;1.48;;;0.80;;
79145;SDS011;68792;53.338;-1.502;2023-04-03T01:53:03;2.53;;;1.00;;
79145;SDS011;68792;53.338;-1.502;2023-04-03T01:55:28;1.48;;;0.60;;
79145;SDS011;68792;53.338;-1.502;2023-04-03T01:57:54;1.80;;;0.68;;
79145;SDS011;68792;53.338;-1.502;2023-04-03T02:00:19;1.60;;;0.95;;
79145;SDS011;68792;53.338;-1.502;2023-04-03T02:02:45;2.30;;;0.70;;
79145;SDS011;68792;53.338;-1.502;2023-04-03T02:05:10;1.92;;;1.20;;
79145;SDS011;68792;53.338;-1.502;2023-04-03T02:07:36;2.05;;;1.02;;
79145;SDS011;68792;53.338;-1.502;2023-04-03T02:10:02;3.53;;;1.08;;
79145;SDS011;68792;53.338;-1.502;2023-04-03T02:12:27;1.92;;;0.60;;
79145;SDS011;68792;53.338;-1.502;2023-04-03T02:14:53;2.58;;;1.00;;
79145;SDS011;68792;53.338;-1.502;2023-04-03T02:17:18;2.13;;;0.98;;
79145;SDS011;68792;53.338;-1.502;2023-04-03T02:19:43;1.65;;;0.90;;
79145;SDS011;68792;53.338;-1.502;2023-04-03T02:22:09;1.67;;;0.70;;
79145;SDS011;68792;53.338;-1.502;2023-04-03T02:24:34;1.52;;;0.63;;
79145;SDS011;68792;53.338;-1.502;2023-04-03T02:27:00;2.47;;;0.70;;
79145;SDS011;68792;53.338;-1.502;2023-04-03T02:29:25;2.38;;;0.85;;
79145;SDS011;68792;53.338;-1.502;2023-04-03T02:31:51;1.27;;;0.63;;
79145;SDS011;68792;53.338;-1.502;2023-04-03T02:34:16;1.23;;;0.70;;
79145;SDS011;68792;53.338;-1.502;2023-04-03T02:36:42;1.67;;;0.93;;
79145;SDS011;68792;53.338;-1.502;2023-04-03T02:39:08;2.13;;;0.75;;
79145;SDS011;68792;53.338;-1.502;2023-04-03T02:41:33;2.38;;;0.73;;
79145;SDS011;68792;53.338;-1.502;2023-04-03T02:44:04;2.25;;;1.02;;
79145;SDS011;68792;53.338;-1.502;2023-04-03T02:46:31;1.95;;;0.70;;
79145;SDS011;68792;53.338;-1.502;2023-04-03T02:48:57;2.25;;;0.70;;
79145;SDS011;68792;53.338;-1.502;2023-04-03T02:51:22;1.40;;;0.57;;
79145;SDS011;68792;53.338;-1.502;2023-04-03T02:53:48;2.15;;;0.70;;
79145;SDS011;68792;53.338;-1.502;2023-04-03T02:56:14;1.42;;;0.80;;
79145;SDS011;68792;53.338;-1.502;2023-04-03T02:58:40;2.85;;;0.80;;
79145;SDS011;68792;53.338;-1.502;2023-04-03T03:01:05;2.25;;;0.70;;
79145;SDS011;68792;53.338;-1.502;2023-04-03T03:03:30;1.65;;;0.77;;
79145;SDS011;68792;53.338;-1.502;2023-04-03T03:08:28;1.92;;;0.63;;
79145;SDS011;68792;53.338;-1.502;2023-04-03T03:10:54;1.33;;;0.63;;
79145;SDS011;68792;53.338;-1.502;2023-04-03T03:13:19;1.75;;;0.50;;
79145;SDS011;68792;53.338;-1.502;2023-04-03T03:15:45;2.22;;;0.75;;
79145;SDS011;68792;53.338;-1.502;2023-04-03T03:18:10;2.33;;;0.70;;
79145;SDS011;68792;53.338;-1.502;2023-04-03T03:20:35;1.30;;;0.68;;
79145;SDS011;68792;53.338;-1.502;2023-04-03T03:23:01;1.92;;;0.70;;
79145;SDS011;68792;53.338;-1.502;2023-04-03T03:25:26;1.80;;;0.63;;
79145;SDS011;68792;53.338;-1.502;2023-04-03T03:27:52;1.52;;;0.70;;
79145;SDS011;68792;53.338;-1.502;2023-04-03T03:30:17;0.88;;;0.47;;
79145;SDS011;68792;53.338;-1.502;2023-04-03T03:32:42;1.77;;;0.73;;
79145;SDS011;68792;53.338;-1.502;2023-04-03T03:35:08;2.15;;;1.00;;
79145;SDS011;68792;53.338;-1.502;2023-04-03T03:37:33;1.05;;;0.57;;
79145;SDS011;68792;53.338;-1.502;2023-04-03T03:39:59;2.60;;;0.82;;
79145;SDS011;68792;53.338;-1.502;2023-04-03T03:42:25;1.83;;;0.70;;
79145;SDS011;68792;53.338;-1.502;2023-04-03T03:44:50;1.27;;;0.70;;
79145;SDS011;68792;53.338;-1.502;2023-04-03T03:47:16;2.80;;;0.70;;
79145;SDS011;68792;53.338;-1.502;2023-04-03T03:49:42;2.10;;;1.10;;
79145;SDS011;68792;53.338;-1.502;2023-04-03T03:52:07;2.13;;;0.63;;
79145;SDS011;68792;53.338;-1.502;2023-04-03T03:54:35;1.48;;;0.50;;
79145;SDS011;68792;53.338;-1.502;2023-04-03T03:57:01;1.55;;;0.63;;
79145;SDS011;68792;53.338;-1.502;2023-04-03T03:59:26;1.20;;;0.50;;
79145;SDS011;68792;53.338;-1.502;2023-04-03T04:01:52;2.13;;;0.63;;
79145;SDS011;68792;53.338;-1.502;2023-04-03T04:04:17;1.83;;;0.70;;
79145;SDS011;68792;53.338;-1.502;2023-04-03T04:06:42;1.63;;;0.45;;
79145;SDS011;68792;53.338;-1.502;2023-04-03T04:09:08;0.82;;;0.40;;
79145;SDS011;68792;53.338;-1.502;2023-04-03T04:11:34;0.95;;;0.40;;
79145;SDS011;68792;53.338;-1.502;2023-04-03T04:14:00;2.17;;;0.68;;
79145;SDS011;68792;53.338;-1.502;2023-04-03T04:16:25;1.60;;;0.63;;
79145;SDS011;68792;53.338;-1.502;2023-04-03T04:18:50;2.63;;;0.68;;
79145;SDS011;68792;53.338;-1.502;2023-04-03T04:21:16;1.58;;;0.88;;
79145;SDS011;68792;53.338;-1.502;2023-04-03T04:23:41;1.30;;;0.52;;
79145;SDS011;68792;53.338;-1.502;2023-04-03T04:26:06;1.20;;;0.80;;
79145;SDS011;68792;53.338;-1.502;2023-04-03T04:28:32;2.58;;;0.80;;
79145;SDS011;68792;53.338;-1.502;2023-04-03T04:30:57;1.13;;;0.52;;
79145;SDS011;68792;53.338;-1.502;2023-04-03T04:33:23;1.52;;;0.63;;
79145;SDS011;68792;53.338;-1.502;2023-04-03T04:35:48;2.00;;;0.70;;
79145;SDS011;68792;53.338;-1.502;2023-04-03T04:38:14;2.60;;;0.88;;
79145;SDS011;68792;53.338;-1.502;2023-04-03T04:40:39;2.30;;;0.60;;
79145;SDS011;68792;53.338;-1.502;2023-04-03T04:43:05;1.10;;;0.52;;
79145;SDS011;68792;53.338;-1.502;2023-04-03T04:45:31;1.38;;;0.40;;
79145;SDS011;68792;53.338;-1.502;2023-04-03T04:47:56;0.93;;;0.47;;
79145;SDS011;68792;53.338;-1.502;2023-04-03T04:50:22;1.80;;;0.43;;
79145;SDS011;68792;53.338;-1.502;2023-04-03T04:52:47;0.90;;;0.50;;
79145;SDS011;68792;53.338;-1.502;2023-04-03T04:55:13;1.20;;;0.60;;
79145;SDS011;68792;53.338;-1.502;2023-04-03T04:57:38;2.33;;;0.98;;
79145;SDS011;68792;53.338;-1.502;2023-04-03T05:00:04;1.33;;;0.75;;
79145;SDS011;68792;53.338;-1.502;2023-04-03T05:02:30;1.52;;;0.60;;
79145;SDS011;68792;53.338;-1.502;2023-04-03T05:04:55;2.13;;;0.60;;
79145;SDS011;68792;53.338;-1.502;2023-04-03T05:07:21;1.52;;;0.68;;
79145;SDS011;68792;53.338;-1.502;2023-04-03T05:09:47;1.40;;;0.95;;
79145;SDS011;68792;53.338;-1.502;2023-04-03T05:12:13;1.10;;;0.55;;
79145;SDS011;68792;53.338;-1.502;2023-04-03T05:14:38;1.38;;;0.75;;
79145;SDS011;68792;53.338;-1.502;2023-04-03T05:17:03;2.15;;;0.60;;
79145;SDS011;68792;53.338;-1.502;2023-04-03T05:19:29;0.75;;;0.43;;
79145;SDS011;68792;53.338;-1.502;2023-04-03T05:21:54;1.42;;;0.57;;
79145;SDS011;68792;53.338;-1.502;2023-04-03T05:24:20;1.58;;;0.50;;
79145;SDS011;68792;53.338;-1.502;2023-04-03T05:26:45;1.95;;;0.52;;
79145;SDS011;68792;53.338;-1.502;2023-04-03T05:29:11;1.33;;;0.50;;
79145;SDS011;68792;53.338;-1.502;2023-04-03T05:31:36;1.40;;;0.60;;
79145;SDS011;68792;53.338;-1.502;2023-04-03T05:34:02;1.63;;;0.68;;
79145;SDS011;68792;53.338;-1.502;2023-04-03T05:36:28;2.05;;;0.50;;
79145;SDS011;68792;53.338;-1.502;2023-04-03T05:38:53;1.92;;;0.70;;
79145;SDS011;68792;53.338;-1.502;2023-04-03T05:41:21;2.15;;;0.70;;
79145;SDS011;68792;53.338;-1.502;2023-04-03T05:43:46;1.45;;;0.70;;
79145;SDS011;68792;53.338;-1.502;2023-04-03T05:46:12;1.42;;;0.57;;
79145;SDS011;68792;53.338;-1.502;2023-04-03T05:48:39;1.58;;;0.50;;
79145;SDS011;68792;53.338;-1.502;2023-04-03T05:51:05;1.60;;;0.60;;
79145;SDS011;68792;53.338;-1.502;2023-04-03T05:53:31;1.23;;;0.47;;
79145;SDS011;68792;53.338;-1.502;2023-04-03T05:56:00;2.17;;;0.60;;
79145;SDS011;68792;53.338;-1.502;2023-04-03T05:58:25;2.00;;;0.50;;
79145;SDS011;68792;53.338;-1.502;2023-04-03T06:00:51;1.00;;;0.55;;
79145;SDS011;68792;53.338;-1.502;2023-04-03T06:03:17;1.50;;;0.57;;
79145;SDS011;68792;53.338;-1.502;2023-04-03T06:05:42;2.03;;;0.47;;
79145;SDS011;68792;53.338;-1.502;2023-04-03T06:08:08;1.90;;;0.73;;
79145;SDS011;68792;53.338;-1.502;2023-04-03T06:10:34;0.98;;;0.63;;
79145;SDS011;68792;53.338;-1.502;2023-04-03T06:13:00;1.02;;;0.55;;
79145;SDS011;68792;53.338;-1.502;2023-04-03T06:15:26;0.98;;;0.68;;
79145;SDS011;68792;53.338;-1.502;2023-04-03T06:17:51;1.27;;;0.50;;
79145;SDS011;68792;53.338;-1.502;2023-04-03T06:20:16;1.70;;;0.60;;
79145;SDS011;68792;53.338;-1.502;2023-04-03T06:22:42;1.63;;;0.82;;
79145;SDS011;68792;53.338;-1.502;2023-04-03T06:25:07;1.30;;;0.68;;
79145;SDS011;68792;53.338;-1.502;2023-04-03T06:27:34;1.58;;;0.57;;
79145;SDS011;68792;53.338;-1.502;2023-04-03T06:29:59;3.67;;;0.93;;
79145;SDS011;68792;53.338;-1.502;2023-04-03T06:32:25;1.00;;;0.50;;
79145;SDS011;68792;53.338;-1.502;2023-04-03T06:34:51;2.33;;;0.50;;
79145;SDS011;68792;53.338;-1.502;2023-04-03T06:37:19;0.80;;;0.47;;
79145;SDS011;68792;53.338;-1.502;2023-04-03T06:39:47;1.15;;;0.55;;
79145;SDS011;68792;53.338;-1.502;2023-04-03T06:42:12;1.50;;;0.60;;
79145;SDS011;68792;53.338;-1.502;2023-04-03T06:44:38;2.03;;;0.77;;
79145;SDS011;68792;53.338;-1.502;2023-04-03T06:47:03;1.40;;;0.55;;
79145;SDS011;68792;53.338;-1.502;2023-04-03T06:49:29;1.05;;;0.40;;
79145;SDS011;68792;53.338;-1.502;2023-04-03T06:51:55;2.10;;;0.60;;
79145;SDS011;68792;53.338;-1.502;2023-04-03T06:54:21;2.13;;;0.80;;
79145;SDS011;68792;53.338;-1.502;2023-04-03T06:56:47;1.52;;;0.47;;
79145;SDS011;68792;53.338;-1.502;2023-04-03T06:59:12;1.35;;;0.50;;
79145;SDS011;68792;53.338;-1.502;2023-04-03T07:01:39;1.08;;;0.43;;
79145;SDS011;68792;53.338;-1.502;2023-04-03T07:04:05;2.78;;;0.73;;
79145;SDS011;68792;53.338;-1.502;2023-04-03T07:06:31;1.77;;;0.50;;
79145;SDS011;68792;53.338;-1.502;2023-04-03T07:08:58;1.70;;;0.60;;
79145;SDS011;68792;53.338;-1.502;2023-04-03T07:11:23;2.75;;;0.70;;
79145;SDS011;68792;53.338;-1.502;2023-04-03T07:13:49;1.40;;;0.65;;
79145;SDS011;68792;53.338;-1.502;2023-04-03T07:16:15;1.88;;;0.55;;
79145;SDS011;68792;53.338;-1.502;2023-04-03T07:18:40;1.80;;;0.45;;
79145;SDS011;68792;53.338;-1.502;2023-04-03T07:21:06;3.80;;;0.65;;
79145;SDS011;68792;53.338;-1.502;2023-04-03T07:23:32;1.55;;;0.55;;
79145;SDS011;68792;53.338;-1.502;2023-04-03T07:25:57;1.08;;;0.70;;
79145;SDS011;68792;53.338;-1.502;2023-04-03T07:28:23;1.65;;;0.50;;
79145;SDS011;68792;53.338;-1.502;2023-04-03T07:30:50;1.90;;;0.50;;
79145;SDS011;68792;53.338;-1.502;2023-04-03T07:33:17;1.00;;;0.60;;
79145;SDS011;68792;53.338;-1.502;2023-04-03T07:35:44;1.10;;;0.50;;
79145;SDS011;68792;53.338;-1.502;2023-04-03T07:40:35;1.50;;;0.32;;
79145;SDS011;68792;53.338;-1.502;2023-04-03T07:43:01;2.67;;;0.60;;
79145;SDS011;68792;53.338;-1.502;2023-04-03T07:45:27;2.05;;;0.60;;
79145;SDS011;68792;53.338;-1.502;2023-04-03T07:47:52;2.40;;;0.70;;
79145;SDS011;68792;53.338;-1.502;2023-04-03T07:50:18;2.47;;;0.85;;
79145;SDS011;68792;53.338;-1.502;2023-04-03T07:52:44;2.20;;;0.70;;
79145;SDS011;68792;53.338;-1.502;2023-04-03T07:55:10;1.98;;;0.70;;
79145;SDS011;68792;53.338;-1.502;2023-04-03T07:57:36;0.82;;;0.35;;
79145;SDS011;68792;53.338;-1.502;2023-04-03T08:00:03;2.55;;;0.80;;
79145;SDS011;68792;53.338;-1.502;2023-04-03T08:02:29;1.83;;;0.40;;
79145;SDS011;68792;53.338;-1.502;2023-04-03T08:04:56;1.13;;;0.45;;
79145;SDS011;68792;53.338;-1.502;2023-04-03T08:07:22;2.17;;;0.55;;
79145;SDS011;68792;53.338;-1.502;2023-04-03T08:09:48;2.42;;;0.73;;
79145;SDS011;68792;53.338;-1.502;2023-04-03T08:12:14;2.97;;;0.80;;
79145;SDS011;68792;53.338;-1.502;2023-04-03T08:14:40;1.52;;;0.55;;
79145;SDS011;68792;53.338;-1.502;2023-04-03T08:17:05;1.10;;;0.60;;
79145;SDS011;68792;53.338;-1.502;2023-04-03T08:19:34;2.35;;;0.93;;
79145;SDS011;68792;53.338;-1.502;2023-04-03T08:22:00;1.10;;;0.45;;
79145;SDS011;68792;53.338;-1.502;2023-04-03T08:24:28;1.38;;;0.63;;
79145;SDS011;68792;53.338;-1.502;2023-04-03T08:26:53;2.20;;;0.75;;
79145;SDS011;68792;53.338;-1.502;2023-04-03T08:29:19;1.42;;;0.65;;
79145;SDS011;68792;53.338;-1.502;2023-04-03T08:31:46;2.25;;;0.68;;
79145;SDS011;68792;53.338;-1.502;2023-04-03T08:34:11;1.63;;;0.45;;
79145;SDS011;68792;53.338;-1.502;2023-04-03T08:36:38;3.03;;;0.93;;
79145;SDS011;68792;53.338;-1.502;2023-04-03T08:39:04;1.83;;;0.63;;
79145;SDS011;68792;53.338;-1.502;2023-04-03T08:41:36;1.15;;;0.57;;
79145;SDS011;68792;53.338;-1.502;2023-04-03T08:46:52;2.03;;;0.70;;
79145;SDS011;68792;53.338;-1.502;2023-04-03T08:49:36;1.88;;;0.70;;
79145;SDS011;68792;53.338;-1.502;2023-04-03T08:52:09;1.55;;;0.40;;
79145;SDS011;68792;53.338;-1.502;2023-04-03T08:54:41;1.60;;;0.47;;
79145;SDS011;68792;53.338;-1.502;2023-04-03T08:57:15;2.00;;;0.50;;
79145;SDS011;68792;53.338;-1.502;2023-04-03T08:59:41;3.40;;;0.60;;
79145;SDS011;68792;53.338;-1.502;2023-04-03T09:02:50;4.25;;;0.60;;
79145;SDS011;68792;53.338;-1.502;2023-04-03T09:04:58;3.40;;;0.68;;
79145;SDS011;68792;53.338;-1.502;2023-04-03T09:07:32;2.40;;;0.50;;
79145;SDS011;68792;53.338;-1.502;2023-04-03T09:10:01;6.22;;;0.80;;
79145;SDS011;68792;53.338;-1.502;2023-04-03T09:12:31;2.15;;;0.57;;
79145;SDS011;68792;53.338;-1.502;2023-04-03T09:23:24;6.38;;;0.65;;
79145;SDS011;68792;53.338;-1.502;2023-04-03T09:25:56;4.43;;;0.73;;
79145;SDS011;68792;53.338;-1.502;2023-04-03T09:28:27;4.32;;;0.63;;
79145;SDS011;68792;53.338;-1.502;2023-04-03T09:30:53;7.03;;;0.77;;
79145;SDS011;68792;53.338;-1.502;2023-04-03T09:33:18;2.97;;;0.52;;
79145;SDS011;68792;53.338;-1.502;2023-04-03T09:35:46;3.05;;;1.10;;
79145;SDS011;68792;53.338;-1.502;2023-04-03T09:40:39;2.65;;;0.52;;
79145;SDS011;68792;53.338;-1.502;2023-04-03T09:43:51;3.20;;;0.80;;
79145;SDS011;68792;53.338;-1.502;2023-04-03T09:45:55;3.85;;;0.77;;
79145;SDS011;68792;53.338;-1.502;2023-04-03T09:48:24;4.68;;;0.50;;
79145;SDS011;68792;53.338;-1.502;2023-04-03T09:55:50;2.10;;;0.47;;
79145;SDS011;68792;53.338;-1.502;2023-04-03T10:06:39;2.97;;;0.40;;
79145;SDS011;68792;53.338;-1.502;2023-04-03T10:09:19;0.90;;;0.45;;
79145;SDS011;68792;53.338;-1.502;2023-04-03T10:14:36;4.28;;;0.63;;
79145;SDS011;68792;53.338;-1.502;2023-04-03T10:17:06;1.52;;;0.40;;
79145;SDS011;68792;53.338;-1.502;2023-04-03T10:19:44;2.75;;;0.60;;
79145;SDS011;68792;53.338;-1.502;2023-04-03T10:22:16;2.90;;;0.65;;
79145;SDS011;68792;53.338;-1.502;2023-04-03T10:24:51;1.48;;;0.35;;
79145;SDS011;68792;53.338;-1.502;2023-04-03T10:32:55;10.90;;;0.95;;
79145;SDS011;68792;53.338;-1.502;2023-04-03T10:38:11;17.67;;;2.25;;
79145;SDS011;68792;53.338;-1.502;2023-04-03T10:40:55;12.68;;;1.30;;
79145;SDS011;68792;53.338;-1.502;2023-04-03T10:51:29;11.32;;;1.15;;
79145;SDS011;68792;53.338;-1.502;2023-04-03T10:56:53;11.52;;;1.23;;
79145;SDS011;68792;53.338;-1.502;2023-04-03T11:01:56;12.32;;;1.05;;
79145;SDS011;68792;53.338;-1.502;2023-04-03T11:04:33;9.98;;;1.02;;
79145;SDS011;68792;53.338;-1.502;2023-04-03T11:10:00;10.05;;;1.58;;
79145;SDS011;68792;53.338;-1.502;2023-04-03T11:12:42;7.60;;;0.70;;
79145;SDS011;68792;53.338;-1.502;2023-04-03T11:15:16;9.70;;;0.98;;
79145;SDS011;68792;53.338;-1.502;2023-04-03T11:17:54;5.68;;;1.02;;
79145;SDS011;68792;53.338;-1.502;2023-04-03T11:23:20;6.25;;;0.57;;
79145;SDS011;68792;53.338;-1.502;2023-04-03T11:25:49;5.55;;;0.70;;
79145;SDS011;68792;53.338;-1.502;2023-04-03T11:28:17;3.45;;;0.55;;
79145;SDS011;68792;53.338;-1.502;2023-04-03T11:36:47;7.43;;;0.68;;
79145;SDS011;68792;53.338;-1.502;2023-04-03T11:38:54;3.10;;;0.43;;
79145;SDS011;68792;53.338;-1.502;2023-04-03T11:41:29;3.42;;;0.47;;
79145;SDS011;68792;53.338;-1.502;2023-04-03T11:43:57;2.50;;;0.60;;
79145;SDS011;68792;53.338;-1.502;2023-04-03T12:08:50;4.00;;;0.50;;
79145;SDS011;68792;53.338;-1.502;2023-04-03T12:11:28;2.58;;;0.90;;
79145;SDS011;68792;53.338;-1.502;2023-04-03T12:16:27;8.63;;;1.38;;
79145;SDS011;68792;53.338;-1.502;2023-04-03T12:24:28;4.93;;;0.80;;
79145;SDS011;68792;53.338;-1.502;2023-04-03T12:29:47;1.23;;;0.43;;
79145;SDS011;68792;53.338;-1.502;2023-04-03T12:35:05;5.05;;;0.47;;
79145;SDS011;68792;53.338;-1.502;2023-04-03T12:48:33;2.03;;;0.40;;
79145;SDS011;68792;53.338;-1.502;2023-04-03T12:51:03;1.50;;;0.50;;
79145;SDS011;68792;53.338;-1.502;2023-04-03T12:53:34;5.13;;;0.63;;
79145;SDS011;68792;53.338;-1.502;2023-04-03T12:58:53;3.55;;;0.32;;
79145;SDS011;68792;53.338;-1.502;2023-04-03T13:01:24;4.60;;;0.57;;
79145;SDS011;68792;53.338;-1.502;2023-04-03T13:03:53;1.27;;;0.50;;
79145;SDS011;68792;53.338;-1.502;2023-04-03T13:06:27;3.75;;;0.63;;
79145;SDS011;68792;53.338;-1.502;2023-04-03T13:08:58;3.03;;;0.65;;
79145;SDS011;68792;53.338;-1.502;2023-04-03T13:11:35;5.38;;;0.95;;
79145;SDS011;68792;53.338;-1.502;2023-04-03T13:14:04;2.72;;;0.40;;
79145;SDS011;68792;53.338;-1.502;2023-04-03T13:16:31;1.85;;;0.38;;
79145;SDS011;68792;53.338;-1.502;2023-04-03T13:18:57;1.88;;;0.60;;
79145;SDS011;68792;53.338;-1.502;2023-04-03T13:21:32;2.40;;;0.47;;
79145;SDS011;68792;53.338;-1.502;2023-04-03T13:23:58;2.97;;;0.70;;
79145;SDS011;68792;53.338;-1.502;2023-04-03T13:26:27;1.90;;;0.38;;
79145;SDS011;68792;53.338;-1.502;2023-04-03T13:28:59;2.00;;;0.40;;
79145;SDS011;68792;53.338;-1.502;2023-04-03T13:31:29;1.63;;;0.50;;
79145;SDS011;68792;53.338;-1.502;2023-04-03T13:36:30;1.58;;;0.40;;
79145;SDS011;68792;53.338;-1.502;2023-04-03T13:39:04;2.78;;;0.55;;
79145;SDS011;68792;53.338;-1.502;2023-04-03T13:43:55;1.73;;;0.73;;
79145;SDS011;68792;53.338;-1.502;2023-04-03T13:46:27;2.75;;;0.82;;
79145;SDS011;68792;53.338;-1.502;2023-04-03T13:48:54;2.72;;;0.60;;
79145;SDS011;68792;53.338;-1.502;2023-04-03T13:51:22;1.67;;;0.55;;
79145;SDS011;68792;53.338;-1.502;2023-04-03T13:54:00;2.67;;;0.73;;
79145;SDS011;68792;53.338;-1.502;2023-04-03T13:58:59;3.20;;;0.57;;
79145;SDS011;68792;53.338;-1.502;2023-04-03T14:02:08;2.03;;;0.50;;
79145;SDS011;68792;53.338;-1.502;2023-04-03T14:04:25;9.18;;;0.80;;
79145;SDS011;68792;53.338;-1.502;2023-04-03T14:06:53;2.05;;;0.47;;
79145;SDS011;68792;53.338;-1.502;2023-04-03T14:09:19;1.60;;;0.52;;
79145;SDS011;68792;53.338;-1.502;2023-04-03T14:11:46;1.23;;;0.73;;
79145;SDS011;68792;53.338;-1.502;2023-04-03T14:14:17;0.80;;;0.32;;
79145;SDS011;68792;53.338;-1.502;2023-04-03T14:16:46;2.28;;;0.75;;
79145;SDS011;68792;53.338;-1.502;2023-04-03T14:19:18;1.88;;;0.60;;
79145;SDS011;68792;53.338;-1.502;2023-04-03T14:21:55;3.00;;;1.00;;
79145;SDS011;68792;53.338;-1.502;2023-04-03T14:24:21;2.10;;;0.63;;
79145;SDS011;68792;53.338;-1.502;2023-04-03T14:26:47;3.25;;;1.05;;
79145;SDS011;68792;53.338;-1.502;2023-04-03T14:29:14;4.18;;;0.90;;
79145;SDS011;68792;53.338;-1.502;2023-04-03T14:31:41;2.40;;;0.77;;
79145;SDS011;68792;53.338;-1.502;2023-04-03T14:34:07;2.53;;;0.52;;
79145;SDS011;68792;53.338;-1.502;2023-04-03T14:36:34;2.67;;;0.68;;
79145;SDS011;68792;53.338;-1.502;2023-04-03T14:38:59;1.73;;;0.43;;
79145;SDS011;68792;53.338;-1.502;2023-04-03T14:41:26;2.05;;;0.55;;
79145;SDS011;68792;53.338;-1.502;2023-04-03T14:43:52;1.40;;;0.63;;
79145;SDS011;68792;53.338;-1.502;2023-04-03T14:46:19;2.90;;;0.80;;
79145;SDS011;68792;53.338;-1.502;2023-04-03T14:48:51;1.98;;;0.50;;
79145;SDS011;68792;53.338;-1.502;2023-04-03T14:51:17;3.38;;;0.63;;
79145;SDS011;68792;53.338;-1.502;2023-04-03T14:53:42;1.13;;;0.50;;
79145;SDS011;68792;53.338;-1.502;2023-04-03T14:56:17;2.15;;;0.60;;
79145;SDS011;68792;53.338;-1.502;2023-04-03T14:58:46;1.48;;;0.60;;
79145;SDS011;68792;53.338;-1.502;2023-04-03T15:01:15;3.05;;;0.95;;
79145;SDS011;68792;53.338;-1.502;2023-04-03T15:03:40;2.10;;;0.75;;
79145;SDS011;68792;53.338;-1.502;2023-04-03T15:06:07;3.80;;;1.30;;
79145;SDS011;68792;53.338;-1.502;2023-04-03T15:08:34;3.15;;;1.35;;
79145;SDS011;68792;53.338;-1.502;2023-04-03T15:11:00;3.55;;;1.02;;
79145;SDS011;68792;53.338;-1.502;2023-04-03T15:13:26;2.83;;;1.05;;
79145;SDS011;68792;53.338;-1.502;2023-04-03T15:15:51;4.50;;;1.45;;
79145;SDS011;68792;53.338;-1.502;2023-04-03T15:18:21;1.63;;;0.75;;
79145;SDS011;68792;53.338;-1.502;2023-04-03T15:20:48;4.03;;;1.13;;
79145;SDS011;68792;53.338;-1.502;2023-04-03T15:23:14;2.75;;;1.10;;
79145;SDS011;68792;53.338;-1.502;2023-04-03T15:25:44;3.45;;;1.38;;
79145;SDS011;68792;53.338;-1.502;2023-04-03T15:28:17;3.47;;;1.25;;
79145;SDS011;68792;53.338;-1.502;2023-04-03T15:30:45;4.68;;;1.33;;
79145;SDS011;68792;53.338;-1.502;2023-04-03T15:33:10;3.40;;;1.13;;
79145;SDS011;68792;53.338;-1.502;2023-04-03T15:35:35;2.17;;;1.05;;
79145;SDS011;68792;53.338;-1.502;2023-04-03T15:38:01;3.55;;;1.00;;
79145;SDS011;68792;53.338;-1.502;2023-04-03T15:40:26;2.83;;;1.00;;
79145;SDS011;68792;53.338;-1.502;2023-04-03T15:42:52;7.70;;;1.20;;
79145;SDS011;68792;53.338;-1.502;2023-04-03T15:45:17;3.15;;;1.02;;
79145;SDS011;68792;53.338;-1.502;2023-04-03T15:47:43;2.25;;;0.88;;
79145;SDS011;68792;53.338;-1.502;2023-04-03T15:50:08;6.45;;;1.35;;
79145;SDS011;68792;53.338;-1.502;2023-04-03T15:52:34;3.65;;;1.35;;
79145;SDS011;68792;53.338;-1.502;2023-04-03T15:55:00;4.25;;;1.30;;
79145;SDS011;68792;53.338;-1.502;2023-04-03T15:57:26;6.20;;;1.38;;
79145;SDS011;68792;53.338;-1.502;2023-04-03T15:59:52;4.85;;;1.27;;
79145;SDS011;68792;53.338;-1.502;2023-04-03T16:02:17;4.45;;;1.20;;
79145;SDS011;68792;53.338;-1.502;2023-04-03T16:04:43;5.90;;;1.20;;
79145;SDS011;68792;53.338;-1.502;2023-04-03T16:07:08;3.58;;;1.35;;
79145;SDS011;68792;53.338;-1.502;2023-04-03T16:09:34;5.45;;;1.13;;
79145;SDS011;68792;53.338;-1.502;2023-04-03T16:12:00;3.83;;;1.63;;
79145;SDS011;68792;53.338;-1.502;2023-04-03T16:14:27;3.58;;;0.85;;
79145;SDS011;68792;53.338;-1.502;2023-04-03T16:16:53;2.90;;;1.02;;
79145;SDS011;68792;53.338;-1.502;2023-04-03T16:19:18;4.40;;;1.00;;
79145;SDS011;68792;53.338;-1.502;2023-04-03T16:21:44;4.57;;;1.30;;
79145;SDS011;68792;53.338;-1.502;2023-04-03T16:26:36;2.97;;;1.20;;
79145;SDS011;68792;53.338;-1.502;2023-04-03T16:29:01;4.40;;;1.30;;
79145;SDS011;68792;53.338;-1.502;2023-04-03T16:31:26;1.77;;;0.82;;
79145;SDS011;68792;53.338;-1.502;2023-04-03T16:36:18;3.73;;;1.03;;
79145;SDS011;68792;53.338;-1.502;2023-04-03T16:38:43;2.70;;;1.02;;
79145;SDS011;68792;53.338;-1.502;2023-04-03T16:41:09;5.75;;;1.33;;
79145;SDS011;68792;53.338;-1.502;2023-04-03T16:43:34;4.13;;;1.25;;
79145;SDS011;68792;53.338;-1.502;2023-04-03T16:46:01;3.72;;;1.05;;
79145;SDS011;68792;53.338;-1.502;2023-04-03T16:48:27;3.40;;;1.00;;
79145;SDS011;68792;53.338;-1.502;2023-04-03T16:50:53;2.88;;;0.90;;
79145;SDS011;68792;53.338;-1.502;2023-04-03T16:53:19;2.33;;;1.10;;